• Join FlightAware (Why Join?)
  • Login
  • US Flag 
06:20PM EDT


 

Airport Tracker/Info


-or-


 

Live Flight TrackerFlight Track Log ✈ UAL1145 ✈ 24-Apr-2013 ✈ KLAS - KIAH

Flight Track Log - Related Links

Times and Time Zones

All times are in EDT time to prevent confusion due to time zone crossing. See the UAL1145 flight status page for this flight to view local times or setup timezone preferences in your user account.

Time Position Orientation Groundspeed Altitude Reporting Facility
EDT Latitude Longitude Course Direction KTS MPH feet Rate Location/Type
06:34PM 36.1280 -115.1270 23° Northeast 204 235 3,900  Level FlightAware
06:34PM 36.1300 -115.1150 78° East 218 251 4,100 1,680 Climbing FlightAware
06:35PM 36.1310 -115.0950 86° East 235 270 4,600 2,640 Climbing FlightAware
06:35PM 36.1360 -115.0540 81° East 241 277 6,100 3,000 Climbing FlightAware
06:36PM 36.1390 -115.0190 84° East 247 284 7,400 2,160 Climbing FlightAware
06:36PM 36.1440 -114.9720 82° East 284 327 8,100 2,400 Climbing FlightAware
06:37PM 36.1360 -114.9240 102° East 284 327 9,800 2,520 Climbing FlightAware
06:37PM 36.1180 -114.8620 110° East 313 360 11,100 1,560 Climbing FlightAware
06:38PM 36.0980 -114.7920 109° East 355 409 11,900 1,860 Climbing FlightAware
06:39PM 36.0710 -114.7030 111° Southeast 369 425 13,800 2,520 Climbing FlightAware
06:39PM 36.0470 -114.6220 110° East 378 435 15,500 2,280 Climbing FlightAware
06:40PM 36.0230 -114.5390 110° East 393 452 16,900 2,160 Climbing FlightAware
06:41PM 36.0020 -114.4380 104° East 406 467 18,600 2,040 Climbing FlightAware
06:41PM 35.9890 -114.3490 100° East 418 481 19,800 1,860 Climbing FlightAware
06:42PM 35.9750 -114.2500 100° East 428 493 21,100 1,860 Climbing FlightAware
06:43PM 35.9590 -114.1430 100° East 438 504 22,500 1,740 Climbing FlightAware
06:44PM 35.9440 -114.0420 100° East 447 514 23,600 1,620 Climbing FlightAware
06:44PM 35.9280 -113.9290 100° East 456 525 24,800 1,500 Climbing FlightAware
06:45PM 35.9110 -113.8390 103° East 459 528 25,600 1,320 Climbing FlightAware
06:46PM 35.8850 -113.7100 104° East 465 535 26,700 1,260 Climbing FlightAware
06:46PM 35.8630 -113.6070 105° East 473 544 27,500 1,200 Climbing FlightAware
06:47PM 35.8420 -113.5010 104° East 478 550 28,300 1,260 Climbing FlightAware
06:48PM 35.8180 -113.3860 104° East 479 551 29,300 1,260 Climbing FlightAware
06:48PM 35.7970 -113.2880 105° East 482 555 30,100 1,260 Climbing FlightAware
06:49PM 35.7740 -113.1740 104° East 481 554 31,000 1,380 Climbing FlightAware
06:50PM 35.7480 -113.0510 105° East 478 550 32,100 1,260 Climbing FlightAware
06:51PM 35.7270 -112.9510 104° East 477 549 32,800 1,020 Climbing FlightAware
06:51PM 35.7020 -112.8330 105° East 476 548 33,600 960 Climbing FlightAware
06:52PM 35.6790 -112.7280 105° East 475 547 34,200 900 Climbing FlightAware
06:53PM 35.6560 -112.6240 105° East 477 549 34,800 540 Climbing FlightAware
06:53PM 35.6310 -112.5060 105° East 475 547 35,000 120 Climbing FlightAware
06:54PM 35.6100 -112.4080 105° East 475 547 35,000  Level FlightAware
06:55PM 35.5770 -112.3010 111° Southeast 469 540 35,000  Level FlightAware
06:55PM 35.5530 -112.2290 112° Southeast 467 537 35,000  Level FlightAware
06:56PM 35.5170 -112.1210 112° Southeast 468 539 35,000  Level FlightAware
06:57PM 35.4950 -112.0070 103° East 474 545 35,000  Level FlightAware
06:58PM 35.4790 -111.8960 100° East 479 551 35,000  Level FlightAware
06:58PM 35.4620 -111.7810 100° East 481 554 35,000  Level FlightAware
06:59PM 35.4390 -111.6320 101° East 482 555 35,000  Level FlightAware
07:00PM 35.4260 -111.5480 101° East 481 554 35,000  Level FlightAware
07:01PM 35.4070 -111.4270 101° East 482 555 35,000  Level FlightAware
07:01PM 35.3910 -111.3140 100° East 482 555 35,000  Level FlightAware
07:02PM 35.3690 -111.1790 101° East 481 554 35,000  Level FlightAware
07:03PM 35.3450 -111.0340 101° East 481 554 35,000  Level FlightAware
07:04PM 35.3280 -110.9250 101° East 481 554 35,000  Level FlightAware
07:05PM 35.2920 -110.7000 101° East 485 558 35,000  Level FlightAware
07:06PM 35.2730 -110.5810 101° East 488 562 35,000  Level FlightAware
07:06PM 35.2560 -110.4780 101° East 488 562 35,000  Level FlightAware
07:07PM 35.2410 -110.3850 101° East 488 562 35,000  Level FlightAware
07:08PM 35.2270 -110.2930 101° East 488 562 35,000  Level FlightAware
07:08PM 35.2120 -110.2010 101° East 488 562 35,000  Level FlightAware
07:09PM 35.1970 -110.1090 101° East 488 562 35,000  Level FlightAware
07:10PM 35.1790 -109.9930 101° East 488 562 35,000  Level FlightAware
07:11PM 35.1640 -109.9010 101° East 488 562 35,000  Level FlightAware
07:11PM 35.1500 -109.8090 101° East 488 562 35,000  Level FlightAware
07:12PM 35.1350 -109.7170 101° East 488 562 35,000  Level FlightAware
07:13PM 35.1210 -109.6250 101° East 488 562 35,000  Level FlightAware
07:13PM 35.1020 -109.5100 101° East 488 562 35,000  Level FlightAware
07:14PM 35.0880 -109.4170 100° East 488 562 35,000  Level FlightAware
07:15PM 35.0730 -109.3250 101° East 488 562 35,000  Level FlightAware
07:16PM 34.9860 -108.8930 104° East 500 575 35,000  Level FlightAware
07:16PM 34.9680 -108.7940 102° East 499 574 35,000  Level FlightAware
07:17PM 34.9410 -108.6400 102° East 497 572 35,000  Level FlightAware
07:18PM 34.9170 -108.5090 103° East 497 572 35,000  Level FlightAware
07:19PM 34.8970 -108.3980 102° East 498 573 35,000  Level FlightAware
07:20PM 34.8760 -108.2850 103° East 501 577 35,000  Level FlightAware
07:20PM 34.8540 -108.1670 103° East 502 578 35,000  Level FlightAware
07:21PM 34.8310 -108.0410 103° East 505 581 35,000  Level FlightAware
07:22PM 34.8140 -107.9470 102° East 506 582 35,000  Level FlightAware
07:22PM 34.7870 -107.8070 103° East 508 585 35,000  Level FlightAware
07:23PM 34.7670 -107.7000 103° East 508 585 35,000  Level FlightAware
07:24PM 34.7460 -107.5850 102° East 511 588 35,000  Level FlightAware
07:24PM 34.7210 -107.4550 103° East 516 594 35,000  Level FlightAware
07:25PM 34.6990 -107.3430 103° East 517 595 35,000  Level FlightAware
07:26PM 34.6760 -107.2180 103° East 514 592 35,000  Level FlightAware
07:26PM 34.6560 -107.1170 104° East 512 589 35,000  Level FlightAware
07:27PM 34.6320 -106.9960 104° East 508 585 35,000  Level FlightAware
07:28PM 34.6070 -106.8680 103° East 504 580 35,000  Level FlightAware
07:29PM 34.5850 -106.7570 104° East 504 580 35,000  Level FlightAware
07:29PM 34.5650 -106.6520 103° East 504 580 35,000  Level FlightAware
07:30PM 34.5420 -106.5400 104° East 503 579 35,000  Level FlightAware
07:31PM 34.5100 -106.3770 103° East 505 581 35,000  Level FlightAware
07:32PM 34.4860 -106.2570 104° East 506 582 35,000  Level FlightAware
07:32PM 34.4650 -106.1540 104° East 509 586 35,000  Level FlightAware
07:33PM 34.4410 -106.0340 104° East 510 587 35,000  Level FlightAware
07:34PM 34.4240 -105.9470 103° East 510 587 35,000  Level FlightAware
07:34PM 34.4010 -105.8280 103° East 510 587 35,000  Level FlightAware
07:35PM 34.3830 -105.7340 103° East 510 587 35,000  Level FlightAware
07:36PM 34.3650 -105.6390 103° East 510 587 35,000  Level FlightAware
07:36PM 34.3470 -105.5440 103° East 510 587 35,000  Level FlightAware
07:37PM 34.3250 -105.4260 103° East 510 587 35,000  Level FlightAware
07:38PM 34.3070 -105.3310 103° East 510 587 35,000  Level FlightAware
07:39PM 34.2880 -105.2370 104° East 510 587 35,000  Level FlightAware
07:39PM 34.2700 -105.1420 103° East 510 587 35,000  Level FlightAware
07:40PM 34.2520 -105.0470 103° East 510 587 35,000  Level FlightAware
07:41PM 34.2300 -104.9290 103° East 510 587 35,000  Level FlightAware
07:41PM 34.2120 -104.8350 103° East 510 587 35,000  Level FlightAware
07:42PM 34.1940 -104.7400 103° East 510 587 35,000  Level FlightAware
07:43PM 34.1760 -104.6460 103° East 510 587 35,000  Level FlightAware
07:44PM 33.7672 -104.4694 103° East 493 567 35,000  Level Albuquerque Center
07:45PM 33.6981 -104.3267 120° Southeast 494 568 35,000  Level Albuquerque Center
07:46PM 33.6289 -104.1831 120° Southeast 495 570 35,000  Level Albuquerque Center
07:47PM 33.5533 -104.0294 121° Southeast 496 571 35,000  Level Albuquerque Center
07:48PM 33.4825 -103.8864 121° Southeast 499 574 35,000  Level Albuquerque Center
07:49PM 33.4150 -103.7439 120° Southeast 494 568 35,000  Level Albuquerque Center
07:50PM 33.3431 -103.5925 120° Southeast 495 570 35,000  Level Albuquerque Center
07:51PM 33.2725 -103.4550 122° Southeast 490 564 35,000  Level Albuquerque Center
07:52PM 33.2019 -103.3139 121° Southeast 492 566 35,000  Level Albuquerque Center
07:53PM 33.1328 -103.1728 120° Southeast 494 568 35,000  Level Albuquerque Center
07:53PM 33.0869 -103.0833 121° Southeast 489 563 35,000  Level Fort Worth Center
07:54PM 33.0139 -102.9425 122° Southeast 489 563 35,000  Level Fort Worth Center
07:55PM 32.9428 -102.8069 122° Southeast 489 563 35,000  Level Fort Worth Center
07:56PM 32.8736 -102.6617 120° Southeast 489 563 35,000  Level Fort Worth Center
08:02PM 32.4850 -101.9100 120° Southeast 497 572 35,000  Level FlightAware
08:02PM 32.4380 -101.8190 121° Southeast 497 572 35,000  Level FlightAware
08:03PM 32.3900 -101.7260 121° Southeast 497 572 35,000  Level FlightAware
08:04PM 32.3340 -101.6190 122° Southeast 496 571 35,000  Level FlightAware
08:05PM 32.2850 -101.5260 122° Southeast 495 570 35,000  Level FlightAware
08:05PM 32.2320 -101.4260 122° Southeast 494 568 35,000  Level FlightAware
08:06PM 32.1840 -101.3330 121° Southeast 492 566 35,000  Level FlightAware
08:07PM 32.1310 -101.2330 122° Southeast 490 564 35,000  Level FlightAware
08:07PM 32.0820 -101.1420 122° Southeast 489 563 35,000  Level FlightAware
08:08PM 32.0350 -101.0520 122° Southeast 489 563 35,000  Level FlightAware
08:09PM 31.9790 -100.9470 122° Southeast 488 562 35,000  Level FlightAware
08:09PM 31.9310 -100.8580 122° Southeast 489 563 35,000  Level FlightAware
08:10PM 31.8830 -100.7680 122° Southeast 488 562 35,000  Level FlightAware
08:11PM 31.8300 -100.6680 122° Southeast 488 562 35,000  Level FlightAware
08:12PM 31.7820 -100.5790 122° Southeast 489 563 35,000  Level FlightAware
08:12PM 31.7330 -100.4880 122° Southeast 490 564 35,000  Level FlightAware
08:13PM 31.6780 -100.3850 122° Southeast 491 565 35,000  Level FlightAware
08:14PM 31.6290 -100.2940 122° Southeast 491 565 35,000  Level FlightAware
08:14PM 31.5760 -100.1970 123° Southeast 491 565 35,000  Level FlightAware
08:15PM 31.5260 -100.1050 123° Southeast 491 565 35,000  Level FlightAware
08:16PM 31.4780 -100.0170 123° Southeast 491 565 35,000  Level FlightAware
08:16PM 31.4210 -99.9130 123° Southeast 491 565 35,000  Level FlightAware
08:17PM 31.3730 -99.8250 123° Southeast 491 565 35,000  Level FlightAware
08:18PM 31.3190 -99.7270 123° Southeast 491 565 35,000  Level FlightAware
08:19PM 31.2690 -99.6350 122° Southeast 491 565 35,000  Level FlightAware
08:19PM 31.2200 -99.5480 123° Southeast 489 563 35,000  Level FlightAware
08:20PM 31.1650 -99.4480 123° Southeast 489 563 35,000  Level FlightAware
08:21PM 31.1160 -99.3600 123° Southeast 489 563 35,000  Level FlightAware
08:21PM 31.0590 -99.2580 123° Southeast 488 562 35,000  Level FlightAware
08:22PM 31.0100 -99.1690 123° Southeast 488 562 35,000  Level FlightAware
08:23PM 30.9610 -99.0810 123° Southeast 488 562 35,000  Level FlightAware
08:23PM 30.9070 -98.9840 123° Southeast 487 560 35,000  Level FlightAware
08:24PM 30.8590 -98.8980 123° Southeast 486 559 35,000  Level FlightAware
08:25PM 30.8120 -98.8080 121° Southeast 492 566 35,000  Level FlightAware
08:26PM 30.7990 -98.6600 96° East 503 579 35,000  Level FlightAware
08:26PM 30.8010 -98.5400 89° East 502 578 35,000  Level FlightAware
08:27PM 30.8030 -98.4330 89° East 502 578 35,000  Level FlightAware
08:28PM 30.8060 -98.3090 88° East 503 579 35,000  Level FlightAware
08:29PM 30.8080 -98.2000 89° East 503 579 35,000  Level FlightAware
08:29PM 30.8095 -98.0803 89° East 503 579 35,000  Level FlightAware ADS-B
08:30PM 30.8107 -98.0018 89° East 503 579 35,000  Level FlightAware ADS-B
08:30PM 30.8108 -97.9929 89° East 503 579 35,000  Level FlightAware ADS-B
08:30PM 30.8122 -97.9077 89° East 502 578 35,000  Level FlightAware ADS-B
08:30PM 30.8123 -97.8985 89° East 503 579 35,000  Level FlightAware ADS-B
08:31PM 30.8134 -97.8262 89° East 503 579 35,000  Level FlightAware ADS-B
08:31PM 30.8143 -97.7611 89° East 503 579 35,000  Level FlightAware ADS-B
08:31PM 30.8147 -97.7330 89° East 503 579 35,000  Level FlightAware ADS-B
08:32PM 30.8158 -97.6517 89° East 503 579 35,000  Level FlightAware ADS-B
08:32PM 30.8169 -97.5669 89° East 503 579 35,000  Level FlightAware ADS-B
08:33PM 30.8180 -97.4797 89° East 503 579 35,000  Level FlightAware ADS-B
08:33PM 30.8189 -97.3984 89° East 503 579 35,000  Level FlightAware ADS-B
08:34PM 30.8190 -97.3916 89° East 503 579 35,000  Level FlightAware ADS-B
08:34PM 30.8199 -97.3151 89° East 504 580 35,000 -240 Level FlightAware ADS-B
08:34PM 30.8199 -97.3097 90° East 504 580 34,900 -1,020 Descending FlightAware ADS-B
08:35PM 30.8206 -97.2307 89° East 504 580 34,500 -1,020 Descending FlightAware ADS-B
08:35PM 30.8206 -97.2264 90° East 504 580 34,400 -1,200 Descending FlightAware ADS-B
08:35PM 30.8213 -97.1485 89° East 505 581 33,900 -1,980 Descending FlightAware ADS-B
08:36PM 30.8221 -97.0645 89° East 507 583 32,500 -2,880 Descending FlightAware ADS-B
08:36PM 30.8221 -97.0506 90° East 506 582 32,200 -2,940 Descending FlightAware ADS-B
08:36PM 30.8228 -96.9815 89° East 509 586 31,000 -2,820 Descending FlightAware ADS-B
08:36PM 30.8229 -96.9681 89° East 509 586 30,800 -2,400 Descending FlightAware ADS-B
08:37PM 30.8233 -96.8976 90° East 504 580 29,800 -2,160 Descending FlightAware ADS-B
08:37PM 30.8234 -96.8849 89° East 503 579 29,700 -2,160 Descending FlightAware ADS-B
08:37PM 30.8238 -96.8154 90° East 497 572 28,700 -2,280 Descending FlightAware ADS-B
08:37PM 30.8241 -96.7795 89° East 495 570 28,200 -2,400 Descending FlightAware ADS-B
08:38PM 30.8244 -96.7353 90° East 492 566 27,500 -2,340 Descending FlightAware ADS-B
08:38PM 30.8246 -96.6974 90° East 490 564 27,000 -2,160 Descending FlightAware ADS-B
08:38PM 30.8248 -96.6549 90° East 486 559 26,400 -2,220 Descending FlightAware ADS-B
08:38PM 30.8250 -96.6178 90° East 483 556 25,900 -2,220 Descending FlightAware ADS-B
08:39PM 30.8252 -96.5755 90° East 479 551 25,300 -2,220 Descending FlightAware ADS-B
08:39PM 30.8253 -96.5406 90° East 476 548 24,800 -2,160 Descending FlightAware ADS-B
08:39PM 30.8254 -96.4979 90° East 473 544 24,200 -2,220 Descending FlightAware ADS-B
08:39PM 30.8255 -96.4638 90° East 469 540 23,700 -2,220 Descending FlightAware ADS-B
08:40PM 30.8256 -96.4222 90° East 465 535 23,100 -2,040 Descending FlightAware ADS-B
08:40PM 30.8257 -96.3889 90° East 462 532 22,700 -2,100 Descending FlightAware ADS-B
08:40PM 30.8259 -96.3430 90° East 457 526 22,000 -2,160 Descending FlightAware ADS-B
08:40PM 30.8259 -96.3142 90° East 454 522 21,600 -2,040 Descending FlightAware ADS-B
08:40PM 30.8259 -96.3064 90° East 453 521 21,500 -1,740 Descending FlightAware ADS-B
08:40PM 30.8254 -96.2958 93° East 452 520 21,400 -2,040 Descending FlightAware ADS-B
08:41PM 30.8243 -96.2860 97° East 450 518 21,200 -1,740 Descending FlightAware ADS-B
08:41PM 30.8234 -96.2808 101° East 449 517 21,200 -2,040 Level FlightAware ADS-B
08:41PM 30.8227 -96.2773 103° East 448 516 21,100 -2,400 Descending FlightAware ADS-B
08:41PM 30.8204 -96.2687 107° East 446 513 21,000 -2,040 Descending FlightAware ADS-B
08:41PM 30.8190 -96.2645 111° Southeast 445 512 20,900 -2,040 Descending FlightAware ADS-B
08:41PM 30.8154 -96.2550 114° Southeast 441 507 20,800 -2,580 Descending FlightAware ADS-B
08:41PM 30.8125 -96.2487 118° Southeast 439 505 20,600 -2,040 Descending FlightAware ADS-B
08:41PM 30.8102 -96.2444 122° Southeast 437 503 20,600 -1,020 Level FlightAware ADS-B
08:41PM 30.8062 -96.2377 125° Southeast 434 499 20,500 -2,400 Descending FlightAware ADS-B
08:41PM 30.8038 -96.2341 128° Southeast 431 496 20,400 -2,400 Descending FlightAware ADS-B
08:41PM 30.8000 -96.2290 131° Southeast 428 493 20,300 -2,400 Descending FlightAware ADS-B
08:41PM 30.7973 -96.2257 134° Southeast 426 490 20,200 -1,740 Descending FlightAware ADS-B
08:41PM 30.7904 -96.2180 136° Southeast 422 486 20,100 -1,800 Descending FlightAware ADS-B
08:42PM 30.7546 -96.1801 138° Southeast 413 475 19,300 -2,040 Descending FlightAware ADS-B
08:42PM 30.7470 -96.1721 138° Southeast 411 473 19,100 -2,040 Descending FlightAware ADS-B
08:42PM 30.7125 -96.1359 138° Southeast 404 465 18,300 -1,980 Descending FlightAware ADS-B
08:42PM 30.7044 -96.1275 138° Southeast 403 464 18,100 -2,040 Descending FlightAware ADS-B
08:43PM 30.6708 -96.0920 138° Southeast 400 460 17,300 -2,160 Descending FlightAware ADS-B
08:43PM 30.6622 -96.0829 138° Southeast 400 460 17,000 -2,160 Descending FlightAware ADS-B
08:43PM 30.6295 -96.0481 138° Southeast 397 457 16,200 -2,220 Descending FlightAware ADS-B
08:43PM 30.6206 -96.0387 138° Southeast 396 456 15,900 -2,220 Descending FlightAware ADS-B
08:44PM 30.5882 -96.0046 138° Southeast 392 451 15,100 -1,800 Descending FlightAware ADS-B
08:44PM 30.5802 -95.9961 138° Southeast 391 450 15,000 -1,800 Descending FlightAware ADS-B
08:44PM 30.5475 -95.9618 138° Southeast 387 445 14,200 -2,040 Descending FlightAware ADS-B
08:44PM 30.5400 -95.9539 138° Southeast 386 444 14,000 -2,160 Descending FlightAware ADS-B
08:45PM 30.5069 -95.9190 138° Southeast 382 440 13,100 -2,160 Descending FlightAware ADS-B
08:45PM 30.5002 -95.9120 138° Southeast 382 440 12,900 -2,220 Descending FlightAware ADS-B
08:45PM 30.4678 -95.8779 138° Southeast 377 434 12,000 -2,040 Descending FlightAware ADS-B
08:45PM 30.4611 -95.8708 138° Southeast 376 433 11,900 -420 Descending FlightAware ADS-B
08:46PM 30.4296 -95.8378 138° Southeast 349 402 11,800 -240 Descending FlightAware ADS-B
08:46PM 30.4237 -95.8315 137° Southeast 344 396 11,800  Level FlightAware ADS-B
08:46PM 30.3945 -95.8010 138° Southeast 328 377 11,800  Level FlightAware ADS-B
08:46PM 30.3883 -95.7946 138° Southeast 322 371 11,800 -240 Level FlightAware ADS-B
08:47PM 30.3621 -95.7672 138° Southeast 303 349 11,700 -420 Descending FlightAware ADS-B
08:47PM 30.3555 -95.7602 138° Southeast 301 346 11,600 -1,440 Descending FlightAware ADS-B
08:47PM 30.3311 -95.7347 138° Southeast 299 344 11,000 -1,380 Descending FlightAware ADS-B
08:47PM 30.3243 -95.7276 138° Southeast 297 342 10,900 -1,440 Descending FlightAware ADS-B
08:48PM 30.2998 -95.7021 138° Southeast 295 339 10,300 -1,440 Descending FlightAware ADS-B
08:48PM 30.2933 -95.6953 138° Southeast 294 338 10,200 -1,140 Descending FlightAware ADS-B
08:48PM 30.2845 -95.6861 138° Southeast 294 338 10,000 -1,620 Descending FlightAware ADS-B
08:48PM 30.2779 -95.6792 138° Southeast 294 338 9,800 -1,620 Descending FlightAware ADS-B
08:48PM 30.2685 -95.6695 138° Southeast 292 336 9,600 -1,500 Descending FlightAware ADS-B
08:48PM 30.2621 -95.6628 138° Southeast 292 336 9,400 -1,440 Descending FlightAware ADS-B
08:48PM 30.2517 -95.6520 138° Southeast 292 336 9,200 -1,200 Descending FlightAware ADS-B
08:48PM 30.2468 -95.6468 137° Southeast 291 335 9,100 -1,200 Descending FlightAware ADS-B
08:49PM 30.2367 -95.6363 138° Southeast 291 335 8,900 -1,500 Descending FlightAware ADS-B
08:49PM 30.2272 -95.6264 138° Southeast 290 334 8,600 -1,440 Descending FlightAware ADS-B
08:49PM 30.2198 -95.6188 138° Southeast 290 334 8,500 -1,200 Descending FlightAware ADS-B
08:49PM 30.2122 -95.6108 138° Southeast 289 333 8,300 -1,500 Descending FlightAware ADS-B
08:49PM 30.2045 -95.6028 138° Southeast 288 331 8,100 -1,620 Descending FlightAware ADS-B
08:49PM 30.1968 -95.5947 138° Southeast 289 333 7,900 -1,500 Descending FlightAware ADS-B
08:49PM 30.1882 -95.5857 138° Southeast 288 331 7,700 -1,440 Descending FlightAware ADS-B
08:50PM 30.1806 -95.5779 138° Southeast 289 333 7,500 -1,620 Descending FlightAware ADS-B
08:50PM 30.1732 -95.5701 138° Southeast 288 331 7,300 -1,620 Descending FlightAware ADS-B
08:50PM 30.1654 -95.5619 138° Southeast 289 333 7,100 -1,500 Descending FlightAware ADS-B
08:50PM 30.1534 -95.5494 138° Southeast 289 333 6,800 -1,380 Descending FlightAware ADS-B
08:50PM 30.1474 -95.5432 138° Southeast 289 333 6,700 -1,500 Descending FlightAware ADS-B
08:50PM 30.1380 -95.5333 138° Southeast 289 333 6,400 -1,620 Descending FlightAware ADS-B
08:50PM 30.1322 -95.5274 139° Southeast 289 333 6,300 -1,320 Descending FlightAware ADS-B
08:51PM 30.1184 -95.5128 138° Southeast 286 329 6,000 -1,320 Descending FlightAware ADS-B
08:51PM 30.1145 -95.5076 131° Southeast 285 328 5,900 -1,380 Descending FlightAware ADS-B
08:51PM 30.1119 -95.5030 123° Southeast 285 328 5,800 -1,020 Descending FlightAware ADS-B
08:51PM 30.1103 -95.4995 118° Southeast 284 327 5,800  Level FlightAware ADS-B
08:51PM 30.1081 -95.4932 112° Southeast 284 327 5,800  Level FlightAware ADS-B
08:51PM 30.1076 -95.4912 106° East 283 326 5,800  Level FlightAware ADS-B
08:51PM 30.1065 -95.4857 103° East 283 326 5,800  Level FlightAware ADS-B
08:51PM 30.1058 -95.4785 96° East 283 326 5,800  Level FlightAware ADS-B
08:51PM 30.1058 -95.4762 90° East 283 326 5,800  Level FlightAware ADS-B
08:51PM 30.1057 -95.4732 92° East 283 326 5,800  Level FlightAware ADS-B
08:51PM 30.1058 -95.4526 90° East 282 325 5,800  Level FlightAware ADS-B
08:51PM 30.1059 -95.4414 89° East 281 323 5,800  Level FlightAware ADS-B
08:52PM 30.1060 -95.4291 89° East 281 323 5,800  Level FlightAware ADS-B
08:52PM 30.1060 -95.4176 90° East 280 322 5,800  Level FlightAware ADS-B
08:52PM 30.1060 -95.4053 90° East 280 322 5,800  Level FlightAware ADS-B
08:52PM 30.1060 -95.3942 90° East 281 323 5,800  Level FlightAware ADS-B
08:52PM 30.1060 -95.3816 90° East 277 319 5,800  Level FlightAware ADS-B
08:52PM 30.1060 -95.3714 90° East 275 316 5,800  Level FlightAware ADS-B
08:52PM 30.1060 -95.3592 90° East 273 314 5,800  Level FlightAware ADS-B
08:52PM 30.1060 -95.3493 90° East 273 314 5,800  Level FlightAware ADS-B
08:53PM 30.1061 -95.3391 89° East 272 313 5,800  Level FlightAware ADS-B
08:53PM 30.1062 -95.3173 90° East 271 312 5,800  Level FlightAware ADS-B
08:53PM 30.1061 -95.2950 90° East 269 310 5,800  Level FlightAware ADS-B
08:53PM 30.1061 -95.2930 90° East 269 310 5,800  Level FlightAware ADS-B
08:53PM 30.1061 -95.2743 90° East 269 310 5,800  Level FlightAware ADS-B
08:54PM 30.1061 -95.2568 90° East 268 308 5,800 -420 Level FlightAware ADS-B
08:54PM 30.1061 -95.2517 90° East 267 307 5,700 -1,500 Descending FlightAware ADS-B
08:54PM 30.1061 -95.2350 90° East 270 311 5,400 -1,620 Descending FlightAware ADS-B
08:54PM 30.1061 -95.2300 90° East 270 311 5,300 -1,140 Descending FlightAware ADS-B
08:54PM 30.1060 -95.2115 90° East 267 307 5,100 -840 Descending FlightAware ADS-B
08:54PM 30.1060 -95.2083 90° East 266 306 5,100 -840 Level FlightAware ADS-B
08:54PM 30.1060 -95.1899 90° East 262 302 4,900 -1,200 Descending FlightAware ADS-B
08:54PM 30.1060 -95.1871 90° East 262 302 4,800 -1,200 Descending FlightAware ADS-B
08:55PM 30.1060 -95.1697 90° East 256 295 4,600 -900 Descending FlightAware ADS-B
08:55PM 30.1059 -95.1491 90° East 249 287 4,400 -960 Descending FlightAware ADS-B
08:55PM 30.1057 -95.1436 92° East 248 285 4,300 -900 Descending FlightAware ADS-B
08:55PM 30.1053 -95.1407 99° East 247 284 4,300 -1,500 Level FlightAware ADS-B
08:55PM 30.1050 -95.1387 100° East 246 283 4,200 -1,500 Descending FlightAware ADS-B
08:55PM 30.1040 -95.1347 106° East 246 283 4,200 -900 Level FlightAware ADS-B
08:55PM 30.1025 -95.1307 113° Southeast 245 282 4,100 -780 Descending FlightAware ADS-B
08:55PM 30.1004 -95.1264 119° Southeast 242 278 4,100  Level FlightAware ADS-B
08:55PM 30.0981 -95.1230 128° Southeast 241 277 4,100  Level FlightAware ADS-B
08:55PM 30.0958 -95.1203 135° Southeast 238 274 4,100  Level FlightAware ADS-B
08:55PM 30.0953 -95.1198 139° Southeast 238 274 4,100 -2,040 Level FlightAware ADS-B
08:55PM 30.0931 -95.1179 143° Southeast 237 273 4,000 -1,200 Descending FlightAware ADS-B
08:55PM 30.0901 -95.1157 148° Southeast 236 272 4,000  Level FlightAware ADS-B
08:55PM 30.0897 -95.1155 157° South 236 272 4,000  Level FlightAware ADS-B
08:55PM 30.0855 -95.1134 157° South 233 268 4,000 -900 Level FlightAware ADS-B
08:55PM 30.0826 -95.1125 165° South 233 268 3,900 -900 Descending FlightAware ADS-B
08:56PM 30.0780 -95.1118 172° South 232 267 3,900  Level FlightAware ADS-B
08:56PM 30.0775 -95.1117 170° South 232 267 3,900  Level FlightAware ADS-B
08:56PM 30.0737 -95.1115 177° South 231 266 3,900 -900 Level FlightAware ADS-B
08:56PM 30.0699 -95.1114 179° South 230 265 3,800 -1,500 Descending FlightAware ADS-B
08:56PM 30.0566 -95.1114 180° South 225 259 3,500 -1,680 Descending FlightAware ADS-B
08:56PM 30.0509 -95.1114 180° South 225 259 3,300 -1,680 Descending FlightAware ADS-B
08:56PM 30.0454 -95.1116 182° South 223 257 3,200 -1,500 Descending FlightAware ADS-B
08:56PM 30.0422 -95.1121 188° South 223 257 3,100 -1,020 Descending FlightAware ADS-B
08:56PM 30.0392 -95.1128 191° South 222 255 3,100 -1,200 Level FlightAware ADS-B
08:56PM 30.0323 -95.1162 203° Southwest 223 257 2,900 -1,680 Descending FlightAware ADS-B
08:56PM 30.0296 -95.1183 214° Southwest 221 254 2,800 -900 Descending FlightAware ADS-B
08:56PM 30.0267 -95.1214 223° Southwest 219 252 2,800 -900 Level FlightAware ADS-B
08:56PM 30.0245 -95.1242 228° Southwest 217 250 2,700 -1,740 Descending FlightAware ADS-B
08:57PM 30.0227 -95.1268 231° Southwest 216 249 2,600 -1,020 Descending FlightAware ADS-B
08:57PM 30.0210 -95.1295 234° Southwest 214 246 2,600 -780 Level FlightAware ADS-B
08:57PM 30.0135 -95.1413 234° Southwest 208 239 2,400 -1,020 Descending FlightAware ADS-B
08:57PM 30.0103 -95.1465 235° Southwest 207 238 2,300 -1,740 Descending FlightAware ADS-B
08:57PM 30.0093 -95.1485 240° Southwest 206 237 2,200 -2,400 Descending FlightAware ADS-B
08:57PM 30.0083 -95.1509 244° Southwest 207 238 2,100 -1,500 Descending FlightAware ADS-B
08:57PM 30.0071 -95.1566 256° West 207 238 2,000 -1,320 Descending FlightAware ADS-B
08:57PM 30.0070 -95.1665 269° West 202 232 1,800 -900 Descending FlightAware ADS-B
08:57PM 30.0071 -95.1711 271° West 207 238 1,800  Level FlightAware ADS-B
08:57PM 30.0073 -95.1858 271° West 188 216 1,800  Level FlightAware ADS-B
08:58PM 30.0073 -95.1993 270° West 187 215 1,800  Level FlightAware ADS-B
08:58PM 30.0073 -95.2008 270° West 187 215 1,800  Level FlightAware ADS-B
08:58PM 30.0072 -95.2177 270° West 188 216 1,800 -600 Level FlightAware ADS-B
08:58PM 30.0072 -95.2330 270° West 190 219 1,500 -1,080 Descending FlightAware ADS-B
08:59PM 30.0072 -95.2464 270° West 184 212 1,300 -1,020 Descending FlightAware ADS-B
08:59PM 30.0072 -95.2567 270° West 179 206 1,100 -960 Descending FlightAware ADS-B
08:59PM 30.0071 -95.2707 270° West 170 196 900 -780 Descending FlightAware ADS-B
08:59PM 30.0071 -95.2838 270° West 160 184 700 -780 Descending FlightAware ADS-B
08:59PM 30.0071 -95.2966 270° West 155 178 500 -960 Descending FlightAware ADS-B
09:00PM 30.0072 -95.3059 271° West 154 177 300 -960 Descending FlightAware ADS-B
09:00PM 30.0071 -95.3184 269° West 153 176 100 -840 Descending FlightAware ADS-B